Time;durP1;ratioP1;P1;durP2;ratioP2;P2;SDS_P1;SDS_P2;PMS_P1;PMS_P2;Temp;Humidity;BMP_temperature;BMP_pressure;BME280_temperature;BME280_humidity;BME280_pressure;Samples;Min_cycle;Max_cycle;Signal;HPM_P1;HPM_P2
2021/07/28 00:02:28;;;;;;;8.97;8.10;;;24.10;97.60;;;;;;6248939;28;20231;-60
2021/07/28 00:05:31;;;;;;;12.70;9.17;;;24.10;97.50;;;;;;6235698;28;20234;-59
2021/07/28 00:08:34;;;;;;;9.90;8.07;;;24.10;97.60;;;;;;6236303;28;20229;-59
2021/07/28 00:11:37;;;;;;;9.93;8.10;;;24.10;97.50;;;;;;6226040;28;20250;-60
2021/07/28 00:14:42;;;;;;;10.53;7.63;;;24.10;96.70;;;;;;6224489;28;20232;-58
2021/07/28 00:17:48;;;;;;;10.60;7.70;;;24.10;96.40;;;;;;6224261;28;20352;-59
2021/07/28 00:24:12;;;;;;;14.63;9.27;;;23.90;96.40;;;;;;6223916;28;20617;-58
2021/07/28 00:27:15;;;;;;;8.93;6.80;;;23.70;96.40;;;;;;6237376;28;20224;-59
2021/07/28 00:30:20;;;;;;;13.93;8.27;;;23.70;96.30;;;;;;6224044;28;20239;-59
2021/07/28 00:33:23;;;;;;;9.60;7.30;;;23.70;96.40;;;;;;6222131;28;20288;-60
2021/07/28 00:36:26;;;;;;;8.87;7.17;;;23.70;96.50;;;;;;6213298;28;20271;-59
2021/07/28 00:39:29;;;;;;;11.00;7.83;;;23.70;96.60;;;;;;6222100;28;20704;-59
2021/07/28 00:42:33;;;;;;;10.27;8.50;;;23.70;96.50;;;;;;6222100;28;20815;-60
2021/07/28 00:45:39;;;;;;;9.27;7.60;;;23.80;96.70;;;;;;6222037;28;20307;-58
2021/07/28 00:48:42;;;;;;;8.20;7.40;;;23.70;96.50;;;;;;6223630;28;20198;-59
2021/07/28 00:51:46;;;;;;;9.57;7.43;;;23.70;96.60;;;;;;6224183;28;20209;-59
2021/07/28 00:54:49;;;;;;;8.50;7.53;;;23.70;96.60;;;;;;6239234;28;20692;-59
2021/07/28 00:57:53;;;;;;;7.70;6.80;;;23.70;96.60;;;;;;6251021;28;20235;-59
2021/07/28 01:00:58;;;;;;;9.37;7.30;;;23.70;96.80;;;;;;6253030;28;20243;-59
2021/07/28 01:04:01;;;;;;;14.30;8.00;;;23.70;96.90;;;;;;6253035;28;20224;-59
2021/07/28 01:07:05;;;;;;;9.70;7.60;;;23.80;97.10;;;;;;6228363;28;20237;-59
2021/07/28 01:10:09;;;;;;;11.17;7.57;;;23.90;97.00;;;;;;6228023;28;20232;-60
2021/07/28 01:13:12;;;;;;;7.77;6.97;;;23.90;97.00;;;;;;6228219;28;20228;-60
2021/07/28 01:16:21;;;;;;;8.90;7.30;;;23.90;96.80;;;;;;6227890;28;20233;-58
2021/07/28 01:19:30;;;;;;;13.40;7.90;;;23.90;96.70;;;;;;6227599;28;20549;-59
2021/07/28 01:22:34;;;;;;;8.30;7.57;;;23.90;96.70;;;;;;6227990;28;20236;-59
2021/07/28 01:25:39;;;;;;;11.43;7.87;;;23.90;96.70;;;;;;6227939;28;20323;-59
2021/07/28 01:28:42;;;;;;;10.77;7.30;;;23.80;96.50;;;;;;6240303;28;20240;-61
2021/07/28 01:31:47;;;;;;;12.60;8.30;;;23.80;96.70;;;;;;6252305;28;20231;-59
2021/07/28 01:34:53;;;;;;;8.67;7.73;;;23.80;96.30;;;;;;6228529;28;20694;-60
2021/07/28 01:37:56;;;;;;;10.97;7.13;;;23.80;96.20;;;;;;6227634;28;20229;-59
2021/07/28 01:41:04;;;;;;;10.33;7.53;;;23.80;96.20;;;;;;6227232;28;20225;-59
2021/07/28 01:44:07;;;;;;;8.27;7.27;;;23.80;96.10;;;;;;6227323;28;20717;-60
2021/07/28 01:47:10;;;;;;;7.40;6.70;;;23.80;96.20;;;;;;6227034;28;20736;-59
2021/07/28 01:50:14;;;;;;;9.43;8.30;;;23.90;96.40;;;;;;6230368;28;20282;-59
2021/07/28 01:53:17;;;;;;;7.80;6.60;;;23.80;96.30;;;;;;6239792;28;20224;-59
2021/07/28 01:56:22;;;;;;;8.90;8.00;;;23.90;96.10;;;;;;6239055;28;20236;-60
2021/07/28 01:59:26;;;;;;;9.13;7.20;;;23.80;96.20;;;;;;6239315;28;20235;-61
2021/07/28 02:02:31;;;;;;;8.23;7.53;;;23.80;96.30;;;;;;6237656;28;20227;-60
2021/07/28 02:05:37;;;;;;;12.27;7.40;;;23.80;96.20;;;;;;6240996;28;20729;-61
2021/07/28 02:08:40;;;;;;;8.30;7.20;;;23.80;96.20;;;;;;6225681;28;20228;-60
2021/07/28 02:11:45;;;;;;;9.43;6.77;;;23.80;96.20;;;;;;6232142;28;20239;-60
2021/07/28 02:14:49;;;;;;;8.37;7.57;;;23.80;96.10;;;;;;6250952;28;20240;-60
2021/07/28 02:17:52;;;;;;;8.30;7.27;;;23.80;96.00;;;;;;6251212;28;20239;-61
2021/07/28 02:20:58;;;;;;;9.20;6.73;;;23.80;95.70;;;;;;6250869;28;20240;-61
2021/07/28 02:24:01;;;;;;;8.03;5.93;;;23.80;95.60;;;;;;6251092;28;20232;-61
2021/07/28 02:27:06;;;;;;;8.27;6.47;;;23.90;95.50;;;;;;6237826;28;20243;-61
2021/07/28 02:30:11;;;;;;;11.70;8.13;;;23.80;95.70;;;;;;6226501;28;20240;-60
2021/07/28 02:33:14;;;;;;;7.40;6.70;;;23.80;95.80;;;;;;6226071;28;20233;-60
2021/07/28 02:36:17;;;;;;;8.53;7.13;;;23.70;95.70;;;;;;6224457;28;20662;-62
2021/07/28 02:39:20;;;;;;;11.20;7.10;;;23.70;95.70;;;;;;6223459;28;20220;-62
2021/07/28 02:42:24;;;;;;;12.20;7.40;;;23.70;95.80;;;;;;6231717;28;20220;-62
2021/07/28 02:45:28;;;;;;;8.17;7.37;;;23.60;95.80;;;;;;6236654;28;20223;-62
2021/07/28 02:48:31;;;;;;;10.43;7.13;;;23.60;95.90;;;;;;6235539;28;20212;-62
2021/07/28 02:51:34;;;;;;;7.63;6.87;;;23.60;96.30;;;;;;6237298;28;20631;-62
2021/07/28 02:54:37;;;;;;;9.10;8.13;;;23.50;96.40;;;;;;6238802;28;20684;-62
2021/07/28 02:57:42;;;;;;;7.90;7.10;;;23.50;96.70;;;;;;6238986;28;20197;-62
2021/07/28 03:00:46;;;;;;;9.10;6.90;;;23.40;96.90;;;;;;6228220;28;20604;-62
2021/07/28 03:03:49;;;;;;;9.60;6.57;;;23.40;97.10;;;;;;6225860;28;20215;-62
2021/07/28 03:06:52;;;;;;;12.63;8.10;;;23.40;97.20;;;;;;6225343;28;20233;-62
2021/07/28 03:09:55;;;;;;;10.57;6.97;;;23.30;97.30;;;;;;6226043;28;20233;-62
2021/07/28 03:13:00;;;;;;;9.20;6.53;;;23.30;97.50;;;;;;6225742;28;20224;-62
2021/07/28 03:16:10;;;;;;;8.17;7.37;;;23.30;97.60;;;;;;6225632;28;20233;-62
2021/07/28 03:19:13;;;;;;;9.10;7.37;;;23.20;97.80;;;;;;6224939;28;20247;-62
2021/07/28 03:22:16;;;;;;;10.77;7.40;;;23.10;98.00;;;;;;6225701;28;20235;-62
2021/07/28 03:25:19;;;;;;;8.43;7.33;;;23.10;98.10;;;;;;6225133;28;20229;-62
2021/07/28 03:28:24;;;;;;;8.60;7.70;;;23.00;98.30;;;;;;6225065;28;20220;-62
2021/07/28 03:31:27;;;;;;;8.23;7.10;;;23.00;98.90;;;;;;6225441;28;20690;-62
2021/07/28 03:34:30;;;;;;;9.27;8.40;;;23.00;98.60;;;;;;6225145;28;20233;-62
2021/07/28 03:37:33;;;;;;;13.80;7.30;;;22.90;99.00;;;;;;6225381;28;20563;-62
2021/07/28 03:40:37;;;;;;;10.20;8.40;;;22.80;99.10;;;;;;6224758;28;20316;-62
2021/07/28 03:43:41;;;;;;;8.93;8.07;;;22.70;99.70;;;;;;6225012;28;20623;-62
2021/07/28 03:46:44;;;;;;;10.40;8.40;;;22.70;99.80;;;;;;6224504;28;20248;-62
2021/07/28 03:49:47;;;;;;;9.90;7.60;;;22.80;99.80;;;;;;6225222;28;20243;-62
2021/07/28 03:52:51;;;;;;;8.53;7.67;;;22.80;99.90;;;;;;6225011;28;20320;-62
2021/07/28 03:55:54;;;;;;;9.17;8.23;;;22.80;99.80;;;;;;6224797;28;20679;-62
2021/07/28 03:58:59;;;;;;;9.30;8.40;;;22.80;99.80;;;;;;6224690;28;20228;-62
2021/07/28 04:02:02;;;;;;;11.57;7.87;;;22.80;99.80;;;;;;6225476;28;20240;-62
2021/07/28 04:05:07;;;;;;;8.37;7.47;;;22.80;99.80;;;;;;6224784;28;20237;-62
2021/07/28 04:08:10;;;;;;;9.57;8.13;;;22.80;99.90;;;;;;6224813;28;20612;-62
2021/07/28 04:11:13;;;;;;;10.80;8.67;;;22.70;99.90;;;;;;6224970;28;20258;-62
2021/07/28 04:14:17;;;;;;;10.70;8.47;;;22.80;99.90;;;;;;6224369;28;20229;-62
2021/07/28 04:17:21;;;;;;;9.43;7.87;;;22.80;99.90;;;;;;6224644;28;20702;-62
2021/07/28 04:20:24;;;;;;;14.13;8.93;;;22.80;99.90;;;;;;6224496;28;20252;-62
2021/07/28 04:23:27;;;;;;;11.87;8.00;;;22.90;99.90;;;;;;6224602;28;20236;-62
2021/07/28 04:26:30;;;;;;;9.73;8.10;;;22.90;99.90;;;;;;6224229;28;20582;-62
2021/07/28 04:29:34;;;;;;;8.83;7.93;;;22.90;99.90;;;;;;6224643;28;20228;-62
2021/07/28 04:32:38;;;;;;;10.13;8.33;;;23.00;99.80;;;;;;6228037;28;20229;-62
2021/07/28 04:35:41;;;;;;;11.20;7.33;;;23.00;99.70;;;;;;6229462;28;20244;-61
2021/07/28 04:38:44;;;;;;;7.20;6.50;;;23.10;99.50;;;;;;6228920;28;20233;-61
2021/07/28 04:41:47;;;;;;;8.30;7.50;;;23.00;99.20;;;;;;6229305;28;20236;-57
2021/07/28 04:44:52;;;;;;;8.10;7.30;;;23.10;99.30;;;;;;6228937;28;20287;-61
2021/07/28 04:47:55;;;;;;;9.90;7.80;;;23.20;99.20;;;;;;6229088;28;20586;-60
2021/07/28 04:50:59;;;;;;;8.73;6.90;;;23.20;99.00;;;;;;6224205;28;20362;-60
2021/07/28 04:54:02;;;;;;;9.73;7.90;;;23.30;98.70;;;;;;6228980;28;20237;-61
2021/07/28 04:57:06;;;;;;;10.50;7.37;;;23.40;98.70;;;;;;6228845;28;20290;-60
2021/07/28 05:00:11;;;;;;;15.30;8.73;;;23.50;98.60;;;;;;6228320;28;20551;-61
2021/07/28 05:03:15;;;;;;;8.23;6.80;;;23.60;98.50;;;;;;6228712;28;20236;-56
2021/07/28 05:06:18;;;;;;;8.40;7.70;;;23.80;98.30;;;;;;6228270;28;20242;-61
2021/07/28 05:09:21;;;;;;;9.73;7.27;;;23.90;97.90;;;;;;6228429;28;20229;-62
2021/07/28 05:12:24;;;;;;;7.57;6.97;;;24.00;97.60;;;;;;6228143;28;20228;-57
2021/07/28 05:15:29;;;;;;;7.03;6.30;;;24.10;97.00;;;;;;6228219;28;20244;-61
2021/07/28 05:18:32;;;;;;;9.43;6.60;;;24.30;96.60;;;;;;6227842;28;20228;-61
2021/07/28 05:21:35;;;;;;;7.37;5.93;;;24.40;96.30;;;;;;6228549;28;20209;-62
2021/07/28 05:24:38;;;;;;;8.30;6.73;;;24.50;96.10;;;;;;6228178;28;20237;-61
2021/07/28 05:27:42;;;;;;;11.23;6.90;;;24.80;95.80;;;;;;6228212;28;20215;-60
2021/07/28 05:30:46;;;;;;;11.73;6.90;;;25.00;95.50;;;;;;6227717;28;20201;-60
2021/07/28 05:33:49;;;;;;;6.83;5.47;;;25.20;95.00;;;;;;6227769;28;20208;-62
2021/07/28 05:36:57;;;;;;;9.33;6.10;;;25.30;94.40;;;;;;6227959;28;20231;-62
2021/07/28 05:40:00;;;;;;;7.97;6.50;;;25.30;93.90;;;;;;6228080;28;20236;-60
2021/07/28 05:43:03;;;;;;;13.10;7.73;;;25.30;93.30;;;;;;6227749;28;20232;-61
2021/07/28 05:46:08;;;;;;;8.33;7.43;;;25.40;93.40;;;;;;6227333;28;20224;-61
2021/07/28 05:49:11;;;;;;;7.90;6.10;;;25.50;93.30;;;;;;6227615;28;20655;-57
2021/07/28 05:52:14;;;;;;;10.20;7.20;;;25.60;92.50;;;;;;6227415;28;20228;-57
2021/07/28 05:55:17;;;;;;;9.87;6.60;;;25.70;92.30;;;;;;6227592;28;20283;-61
2021/07/28 05:58:20;;;;;;;8.30;6.60;;;26.00;92.20;;;;;;6227208;28;20224;-57
2021/07/28 06:01:25;;;;;;;7.07;6.20;;;26.30;92.20;;;;;;6227321;28;20225;-57
2021/07/28 06:04:28;;;;;;;7.07;6.10;;;26.70;91.00;;;;;;6227349;28;20302;-57
2021/07/28 06:07:31;;;;;;;7.03;5.70;;;27.20;90.40;;;;;;6227163;28;20690;-57
2021/07/28 06:10:35;;;;;;;8.90;6.27;;;27.60;88.00;;;;;;6227150;28;20367;-58
2021/07/28 06:13:38;;;;;;;13.90;6.63;;;28.30;84.30;;;;;;6226852;28;20625;-57
2021/07/28 06:16:42;;;;;;;9.33;5.67;;;28.60;82.30;;;;;;6226902;28;20239;-58
2021/07/28 06:19:46;;;;;;;8.27;5.50;;;29.00;81.30;;;;;;6226358;28;20244;-57
2021/07/28 06:22:49;;;;;;;8.30;6.17;;;29.40;77.70;;;;;;6227010;28;20236;-58
2021/07/28 06:25:52;;;;;;;10.77;5.87;;;29.90;75.10;;;;;;6226387;28;20255;-58
2021/07/28 06:28:56;;;;;;;9.87;5.60;;;30.30;73.10;;;;;;6226522;28;20242;-58
2021/07/28 06:32:00;;;;;;;7.80;4.93;;;30.90;69.70;;;;;;6226393;28;20235;-57
2021/07/28 06:35:04;;;;;;;9.30;5.80;;;31.20;67.70;;;;;;6226752;28;20231;-58
2021/07/28 06:38:07;;;;;;;9.73;6.15;;;31.70;66.70;;;;;;6226395;28;20247;-58
2021/07/28 06:41:10;;;;;;;8.48;5.78;;;32.10;63.90;;;;;;6226491;28;20242;-58
2021/07/28 06:44:13;;;;;;;8.77;5.22;;;32.40;62.50;;;;;;6225948;28;20239;-59
2021/07/28 06:47:18;;;;;;;8.90;6.18;;;32.90;60.70;;;;;;6226230;28;20235;-58
2021/07/28 06:50:21;;;;;;;11.88;6.32;;;33.60;58.90;;;;;;6225953;28;20220;-57
2021/07/28 06:53:24;;;;;;;5.72;5.13;;;34.30;57.00;;;;;;6225779;28;20233;-57
2021/07/28 06:56:27;;;;;;;8.27;5.65;;;34.50;55.30;;;;;;6225997;28;20239;-58
2021/07/28 06:59:30;;;;;;;9.00;6.38;;;35.00;54.20;;;;;;6216345;28;20236;-58
2021/07/28 07:02:35;;;;;;;8.27;5.25;;;35.40;52.80;;;;;;6225903;28;20243;-58
2021/07/28 07:05:39;;;;;;;6.25;5.03;;;35.90;51.20;;;;;;6225423;28;20228;-58
2021/07/28 07:08:42;;;;;;;9.90;5.65;;;36.30;50.50;;;;;;6225683;28;20709;-58
2021/07/28 07:11:45;;;;;;;9.77;5.85;;;37.00;49.40;;;;;;6225805;28;20231;-58
2021/07/28 07:14:48;;;;;;;8.45;5.72;;;37.70;48.30;;;;;;6225601;28;20236;-58
2021/07/28 07:17:54;;;;;;;20.98;6.40;;;38.50;45.90;;;;;;6225219;28;20712;-58
2021/07/28 07:20:57;;;;;;;7.40;5.28;;;39.30;44.20;;;;;;6225253;28;20247;-58
2021/07/28 07:24:00;;;;;;;9.32;5.50;;;40.00;42.70;;;;;;6225307;28;20236;-58
2021/07/28 07:27:04;;;;;;;7.80;5.70;;;40.70;40.60;;;;;;6225541;28;20286;-58
2021/07/28 07:30:08;;;;;;;6.03;5.43;;;41.30;39.10;;;;;;6225051;28;20231;-58
2021/07/28 07:36:33;;;;;;;5.43;4.93;;;41.90;37.80;;;;;;6225030;28;20548;-57
2021/07/28 07:39:36;;;;;;;6.65;5.60;;;41.50;37.90;;;;;;6225320;28;20215;-58
2021/07/28 07:42:40;;;;;;;7.60;5.32;;;42.00;37.10;;;;;;6224873;28;20222;-58
2021/07/28 07:45:43;;;;;;;8.10;5.45;;;42.60;35.90;;;;;;6225235;28;20220;-58
2021/07/28 07:48:47;;;;;;;6.10;4.57;;;43.10;34.80;;;;;;6225086;28;20208;-58
2021/07/28 07:51:50;;;;;;;10.10;5.57;;;44.10;33.60;;;;;;6224728;28;20208;-58
2021/07/28 07:54:53;;;;;;;8.65;5.22;;;44.80;32.00;;;;;;6242967;28;20235;-59
2021/07/28 07:57:57;;;;;;;9.70;4.93;;;45.30;30.50;;;;;;6232006;28;20267;-58
2021/07/28 08:01:05;;;;;;;9.23;5.30;;;46.00;29.50;;;;;;6225661;28;20239;-59
2021/07/28 08:04:10;;;;;;;5.38;4.88;;;46.60;28.80;;;;;;6234936;28;20223;-58
2021/07/28 08:07:13;;;;;;;7.85;4.97;;;47.00;28.50;;;;;;6238571;28;20227;-58
2021/07/28 08:10:16;;;;;;;8.02;5.20;;;46.40;28.30;;;;;;6239132;28;20216;-57
2021/07/28 08:13:19;;;;;;;7.03;5.07;;;47.00;28.20;;;;;;6241786;28;20570;-58
2021/07/28 08:16:23;;;;;;;6.60;6.00;;;47.40;27.80;;;;;;6237632;28;20581;-58
2021/07/28 08:19:28;;;;;;;6.05;5.35;;;47.30;27.70;;;;;;6229207;28;20248;-59
2021/07/28 08:22:31;;;;;;;7.65;6.38;;;47.40;27.80;;;;;;6229004;28;20243;-58
2021/07/28 08:25:34;;;;;;;8.57;5.80;;;47.10;27.80;;;;;;6228992;28;20577;-59
2021/07/28 08:28:37;;;;;;;6.90;6.20;;;46.40;27.80;;;;;;6234211;28;20680;-58
2021/07/28 08:31:41;;;;;;;6.82;5.28;;;45.50;28.40;;;;;;6249687;28;20231;-58
2021/07/28 08:34:46;;;;;;;8.07;5.82;;;44.90;28.80;;;;;;6228937;28;20238;-60
2021/07/28 08:37:49;;;;;;;7.53;4.90;;;44.00;28.80;;;;;;6228864;28;20639;-59
2021/07/28 08:40:59;;;;;;;8.50;5.75;;;43.10;29.40;;;;;;6229130;28;20232;-56
2021/07/28 08:44:03;;;;;;;8.07;6.32;;;41.10;31.80;;;;;;6228667;28;20239;-58
2021/07/28 08:47:07;;;;;;;9.73;6.20;;;39.80;32.90;;;;;;6229116;28;20319;-56
2021/07/28 08:50:13;;;;;;;9.10;5.47;;;39.20;34.10;;;;;;6228036;28;20234;-58
2021/07/28 08:53:16;;;;;;;12.65;6.38;;;38.70;34.40;;;;;;6233084;28;20575;-56
2021/07/28 08:56:22;;;;;;;8.38;6.13;;;38.40;35.10;;;;;;6250976;28;20239;-58
2021/07/28 08:59:27;;;;;;;9.65;5.72;;;37.90;36.00;;;;;;6231865;28;20346;-56
2021/07/28 09:02:30;;;;;;;7.25;5.43;;;37.20;37.90;;;;;;6226317;28;20730;-56
2021/07/28 09:05:40;;;;;;;8.43;6.30;;;36.60;39.20;;;;;;6229085;28;20324;-58
2021/07/28 09:08:43;;;;;;;8.35;6.28;;;36.40;40.00;;;;;;6226301;28;20314;-57
2021/07/28 09:11:55;;;;;;;8.98;6.15;;;36.10;41.00;;;;;;6226005;28;20224;-56
2021/07/28 09:15:01;;;;;;;10.18;6.75;;;36.00;41.70;;;;;;6226322;28;20245;-58
2021/07/28 09:18:29;;;;;;;7.88;6.72;;;35.60;42.20;;;;;;6236195;28;20254;-59
2021/07/28 09:21:34;;;;;;;7.07;6.10;;;35.30;41.90;;;;;;6243124;28;20686;-59
2021/07/28 09:24:38;;;;;;;9.27;5.93;;;35.10;43.00;;;;;;6224323;28;20232;-58
2021/07/28 09:27:44;;;;;;;7.65;6.57;;;34.90;43.20;;;;;;6235466;28;20200;-58
2021/07/28 09:30:47;;;;;;;11.82;6.20;;;34.90;44.00;;;;;;6249610;28;20644;-59
2021/07/28 09:34:10;;;;;;;10.20;6.57;;;34.90;44.10;;;;;;6241237;28;20205;-58
2021/07/28 09:37:15;;;;;;;7.55;6.07;;;34.90;42.20;;;;;;6225905;28;20228;-58
2021/07/28 09:40:22;;;;;;;10.52;6.22;;;34.80;43.50;;;;;;6224980;28;20673;-60
2021/07/28 09:43:25;;;;;;;11.98;6.68;;;34.90;44.00;;;;;;6242391;28;20243;-57
2021/07/28 09:46:30;;;;;;;8.07;6.75;;;34.90;43.90;;;;;;6250182;28;20250;-57
2021/07/28 09:49:35;;;;;;;7.40;6.55;;;34.80;44.30;;;;;;6249835;28;20268;-59
2021/07/28 09:52:39;;;;;;;10.40;6.03;;;34.60;43.40;;;;;;6250049;28;20243;-59
2021/07/28 09:55:51;;;;;;;11.15;7.05;;;34.60;43.40;;;;;;6249133;28;20682;-59
2021/07/28 09:58:55;;;;;;;11.27;7.00;;;34.60;43.40;;;;;;6235021;28;20713;-59
2021/07/28 10:01:59;;;;;;;7.03;6.30;;;34.70;43.50;;;;;;6225011;28;20232;-59
2021/07/28 10:05:04;;;;;;;9.10;6.72;;;34.90;44.10;;;;;;6225077;28;20355;-59
2021/07/28 10:08:10;;;;;;;8.23;6.78;;;35.20;43.80;;;;;;6247058;28;20238;-58
2021/07/28 10:11:14;;;;;;;9.43;6.50;;;35.30;42.60;;;;;;6249506;28;20223;-57
2021/07/28 10:14:19;;;;;;;10.00;6.45;;;35.40;42.90;;;;;;6249187;28;20711;-58
2021/07/28 10:17:22;;;;;;;7.40;6.70;;;35.50;42.60;;;;;;6249390;28;20300;-58
2021/07/28 10:20:26;;;;;;;7.78;7.03;;;35.70;42.50;;;;;;6248035;28;20246;-58
2021/07/28 10:23:32;;;;;;;10.60;7.68;;;35.70;42.00;;;;;;6248177;28;20232;-57
2021/07/28 10:26:38;;;;;;;10.20;6.40;;;35.60;41.80;;;;;;6224795;28;20244;-57
2021/07/28 10:29:42;;;;;;;9.63;6.50;;;35.70;41.80;;;;;;6235620;28;20681;-58
2021/07/28 10:32:46;;;;;;;15.43;6.70;;;35.60;41.70;;;;;;6248402;28;20242;-58
2021/07/28 10:35:50;;;;;;;10.90;6.40;;;35.40;41.60;;;;;;6248509;28;20235;-58
2021/07/28 10:38:57;;;;;;;8.55;6.63;;;35.20;41.50;;;;;;6248688;28;20223;-59
2021/07/28 10:42:00;;;;;;;9.23;6.18;;;35.10;41.50;;;;;;6248581;28;20246;-57
2021/07/28 10:45:06;;;;;;;11.25;6.65;;;34.90;41.30;;;;;;6252956;28;20584;-58
2021/07/28 10:48:09;;;;;;;9.50;6.18;;;34.50;42.40;;;;;;6240075;28;20235;-58
2021/07/28 10:51:55;;;;;;;7.47;6.30;;;34.60;42.70;;;;;;6248114;28;20232;-59
2021/07/28 10:55:20;;;;;;;10.00;5.97;;;34.70;42.70;;;;;;6238882;28;20236;-57
2021/07/28 10:58:26;;;;;;;8.57;6.03;;;34.50;43.20;;;;;;6238036;28;20303;-58
2021/07/28 11:01:51;;;;;;;13.60;7.25;;;34.20;43.10;;;;;;6226961;28;20564;-60
2021/07/28 11:05:19;;;;;;;8.68;6.57;;;34.20;43.80;;;;;;6247625;28;20381;-60
2021/07/28 11:08:22;;;;;;;6.78;5.90;;;34.00;43.10;;;;;;6247585;28;20586;-59
2021/07/28 11:11:30;;;;;;;11.30;6.75;;;33.90;42.10;;;;;;6247538;28;20691;-59
2021/07/28 11:14:40;;;;;;;7.78;5.45;;;34.00;42.30;;;;;;6237991;28;20228;-58
2021/07/28 11:17:53;;;;;;;6.03;5.40;;;34.10;40.20;;;;;;6247545;28;20727;-59
2021/07/28 11:21:05;;;;;;;10.48;5.97;;;34.30;40.90;;;;;;6246023;28;20242;-58
2021/07/28 11:24:08;;;;;;;10.23;5.93;;;34.40;41.00;;;;;;6247358;28;20240;-59
2021/07/28 11:27:13;;;;;;;10.45;5.70;;;34.70;39.80;;;;;;6247602;28;20230;-59
2021/07/28 11:30:17;;;;;;;8.75;6.10;;;35.00;39.80;;;;;;6247280;28;20227;-58
2021/07/28 11:33:20;;;;;;;7.70;6.28;;;35.20;39.70;;;;;;6246766;28;20242;-58
2021/07/28 11:36:24;;;;;;;8.40;6.03;;;35.20;40.00;;;;;;6246627;28;20250;-58
2021/07/28 11:39:27;;;;;;;12.18;6.57;;;35.40;40.70;;;;;;6246763;28;20235;-58
2021/07/28 11:42:31;;;;;;;9.90;6.28;;;35.30;41.20;;;;;;6246884;28;20278;-59
2021/07/28 11:45:38;;;;;;;9.30;6.57;;;35.20;42.00;;;;;;6245018;28;20232;-59
2021/07/28 11:48:44;;;;;;;12.80;6.70;;;35.30;41.80;;;;;;6247273;28;20206;-58
2021/07/28 11:51:48;;;;;;;11.82;6.28;;;35.10;41.90;;;;;;6246943;28;20665;-57
2021/07/28 11:54:51;;;;;;;8.50;6.03;;;35.20;41.90;;;;;;6225695;28;20220;-57
2021/07/28 11:57:56;;;;;;;9.50;6.97;;;35.00;41.70;;;;;;6235013;28;20232;-59
2021/07/28 12:00:59;;;;;;;8.10;6.25;;;35.30;42.20;;;;;;6247273;28;20238;-58
2021/07/28 12:04:05;;;;;;;9.52;6.63;;;34.70;43.50;;;;;;6247188;28;20234;-58
2021/07/28 12:07:13;;;;;;;9.32;6.32;;;34.50;44.20;;;;;;6232616;28;20228;-58
2021/07/28 12:10:26;;;;;;;7.60;6.80;;;35.00;43.80;;;;;;6235864;28;20661;-58
2021/07/28 12:13:41;;;;;;;10.80;6.43;;;35.30;43.90;;;;;;6246610;28;20228;-58
2021/07/28 12:16:44;;;;;;;8.95;8.00;;;35.20;42.80;;;;;;6242383;28;20639;-57
2021/07/28 12:19:53;;;;;;;15.88;7.18;;;35.10;43.60;;;;;;6246820;28;20246;-59
2021/07/28 12:22:58;;;;;;;8.23;7.25;;;35.30;43.10;;;;;;6246335;28;20227;-59
2021/07/28 12:26:02;;;;;;;9.70;6.53;;;35.40;42.20;;;;;;6246567;28;20704;-58
2021/07/28 12:29:06;;;;;;;9.07;6.85;;;35.60;42.20;;;;;;6246650;28;20231;-58
2021/07/28 12:32:13;;;;;;;12.15;8.20;;;35.60;41.40;;;;;;6246586;28;20711;-58
2021/07/28 12:35:32;;;;;;;12.57;7.18;;;35.50;42.10;;;;;;6246325;28;20254;-58
2021/07/28 12:38:36;;;;;;;11.02;8.05;;;35.30;42.00;;;;;;6246414;28;20234;-59
2021/07/28 12:41:39;;;;;;;9.68;6.85;;;35.30;42.20;;;;;;6246415;28;20232;-59
2021/07/28 12:44:44;;;;;;;8.95;6.68;;;35.50;42.30;;;;;;6246242;28;20231;-59
2021/07/28 12:47:47;;;;;;;10.90;7.10;;;35.60;42.00;;;;;;6246170;28;20554;-58
2021/07/28 12:50:51;;;;;;;8.90;7.93;;;35.50;42.50;;;;;;6245911;28;20270;-59
2021/07/28 12:53:54;;;;;;;9.73;7.15;;;35.30;42.70;;;;;;6248712;28;20251;-58
2021/07/28 12:56:57;;;;;;;10.13;7.75;;;35.10;43.70;;;;;;6248400;28;20239;-58
2021/07/28 13:00:01;;;;;;;7.55;6.75;;;34.90;43.80;;;;;;6241903;28;20632;-58
2021/07/28 13:03:06;;;;;;;8.02;6.07;;;34.80;44.00;;;;;;6248390;28;20234;-58
2021/07/28 13:06:10;;;;;;;8.55;6.05;;;34.90;42.80;;;;;;6242033;28;20318;-58
2021/07/28 13:09:13;;;;;;;13.43;8.15;;;35.00;42.70;;;;;;6225705;28;20228;-59
2021/07/28 13:12:16;;;;;;;8.48;6.25;;;35.10;42.50;;;;;;6243611;28;20235;-57
2021/07/28 13:15:21;;;;;;;7.85;6.90;;;35.00;42.80;;;;;;6250437;28;20246;-57
2021/07/28 13:18:24;;;;;;;13.10;7.45;;;35.10;42.90;;;;;;6250666;28;20602;-59
2021/07/28 13:21:27;;;;;;;9.65;8.00;;;35.10;42.70;;;;;;6250226;28;20587;-58
2021/07/28 13:24:30;;;;;;;10.50;6.78;;;35.00;43.20;;;;;;6250050;28;20238;-58
2021/07/28 13:27:33;;;;;;;10.90;7.47;;;34.90;42.60;;;;;;6250423;28;20227;-60
2021/07/28 13:30:38;;;;;;;11.25;7.15;;;34.80;42.60;;;;;;6230690;28;20216;-58
2021/07/28 13:33:41;;;;;;;9.18;6.15;;;34.60;42.60;;;;;;6225760;28;20214;-58
2021/07/28 13:36:44;;;;;;;9.00;6.57;;;34.60;42.40;;;;;;6241929;28;20238;-58
2021/07/28 13:39:47;;;;;;;7.25;5.70;;;34.60;42.40;;;;;;6250240;28;20215;-58
2021/07/28 13:42:53;;;;;;;10.73;6.68;;;34.60;42.40;;;;;;6250376;28;20242;-62
2021/07/28 13:45:57;;;;;;;9.27;6.32;;;34.60;42.20;;;;;;6234800;28;20246;-62
2021/07/28 13:49:01;;;;;;;7.78;6.97;;;34.40;40.70;;;;;;6241844;28;20626;-61
2021/07/28 13:52:05;;;;;;;9.02;6.07;;;34.30;41.10;;;;;;6250080;28;20223;-58
2021/07/28 13:55:09;;;;;;;6.85;5.45;;;34.20;41.30;;;;;;6249804;28;20242;-58
2021/07/28 13:58:13;;;;;;;6.75;5.15;;;34.10;41.10;;;;;;6241195;28;20793;-58
2021/07/28 14:01:17;;;;;;;10.00;6.47;;;34.00;41.30;;;;;;6241419;28;20223;-58
2021/07/28 14:04:21;;;;;;;10.43;7.63;;;34.00;40.80;;;;;;6249837;28;20238;-58
2021/07/28 14:07:25;;;;;;;10.95;6.75;;;33.90;44.60;;;;;;6232745;28;20259;-59
2021/07/28 14:10:29;;;;;;;10.68;7.47;;;33.70;45.30;;;;;;6224943;28;20220;-64
2021/07/28 14:13:32;;;;;;;14.30;7.68;;;33.70;45.90;;;;;;6240615;28;20704;-59
2021/07/28 14:16:38;;;;;;;10.05;7.35;;;33.50;46.10;;;;;;6249174;28;20235;-58
2021/07/28 14:19:41;;;;;;;10.93;7.60;;;33.50;46.40;;;;;;6249209;28;20249;-65
2021/07/28 14:22:45;;;;;;;10.45;7.18;;;33.50;46.30;;;;;;6249024;28;20623;-64
2021/07/28 14:25:48;;;;;;;10.60;7.43;;;33.40;46.00;;;;;;6248466;28;20235;-64
2021/07/28 14:28:51;;;;;;;8.70;7.50;;;33.40;45.60;;;;;;6243478;28;20232;-64
2021/07/28 14:31:56;;;;;;;10.13;8.00;;;33.40;45.70;;;;;;6224305;28;20228;-62
2021/07/28 14:34:59;;;;;;;7.65;6.90;;;33.30;46.10;;;;;;6224626;28;20232;-64
2021/07/28 14:38:02;;;;;;;9.02;6.72;;;33.40;46.30;;;;;;6239112;28;20235;-62
2021/07/28 14:41:05;;;;;;;7.13;6.47;;;33.40;44.60;;;;;;6249005;28;20231;-60
2021/07/28 14:44:08;;;;;;;10.68;6.47;;;33.30;44.90;;;;;;6247790;28;20251;-58
2021/07/28 14:47:15;;;;;;;9.68;7.25;;;33.30;44.90;;;;;;6224036;28;20236;-60
2021/07/28 14:50:18;;;;;;;11.90;8.65;;;33.40;45.00;;;;;;6238477;28;20298;-61
2021/07/28 14:53:21;;;;;;;12.90;8.02;;;33.40;44.50;;;;;;6247009;28;20215;-62
2021/07/28 14:56:24;;;;;;;7.95;7.00;;;33.40;45.20;;;;;;6248302;28;20553;-64
2021/07/28 14:59:28;;;;;;;7.90;7.07;;;33.40;46.00;;;;;;6228806;28;20243;-60
2021/07/28 15:02:33;;;;;;;9.10;7.57;;;33.30;46.40;;;;;;6237971;28;20238;-67
2021/07/28 15:05:38;;;;;;;10.82;7.75;;;33.40;46.10;;;;;;6245620;28;20255;-62
2021/07/28 15:08:41;;;;;;;10.23;8.07;;;33.20;46.70;;;;;;6223485;28;20736;-66
2021/07/28 15:11:45;;;;;;;10.50;8.00;;;33.10;47.50;;;;;;6223318;28;20639;-64
2021/07/28 15:14:49;;;;;;;8.60;7.30;;;33.30;47.50;;;;;;6236929;28;20567;-64
2021/07/28 15:17:54;;;;;;;9.90;7.85;;;33.40;46.60;;;;;;6247518;28;20611;-58
2021/07/28 15:20:57;;;;;;;8.82;7.38;;;33.60;46.40;;;;;;6238205;28;20232;-60
2021/07/28 15:24:00;;;;;;;7.13;6.25;;;33.50;46.20;;;;;;6230545;28;20309;-60
2021/07/28 15:27:04;;;;;;;8.70;6.50;;;33.50;45.60;;;;;;6247062;28;20235;-59
2021/07/28 15:30:08;;;;;;;9.43;7.50;;;33.40;45.00;;;;;;6247067;28;20310;-60
2021/07/28 15:33:14;;;;;;;10.73;7.38;;;33.40;45.40;;;;;;6246970;28;20846;-61
2021/07/28 15:36:17;;;;;;;11.93;7.00;;;33.40;45.10;;;;;;6244027;28;20790;-60
2021/07/28 15:40:05;;;;;;;10.40;6.50;;;33.40;44.30;;;;;;6236175;28;20227;-61
2021/07/28 15:43:09;;;;;;;7.28;6.35;;;33.20;43.60;;;;;;6247377;28;20224;-62
2021/07/28 15:46:12;;;;;;;10.50;6.43;;;33.20;42.90;;;;;;6240813;28;20605;-61
2021/07/28 15:49:17;;;;;;;12.10;6.88;;;33.10;42.50;;;;;;6234941;28;20229;-61
2021/07/28 15:52:20;;;;;;;11.55;6.45;;;32.70;43.10;;;;;;6236097;28;20216;-62
2021/07/28 15:55:24;;;;;;;8.98;6.32;;;32.50;43.50;;;;;;6232115;28;20227;-62
2021/07/28 15:58:28;;;;;;;8.02;6.60;;;32.50;43.50;;;;;;6233954;28;20763;-63
2021/07/28 16:01:33;;;;;;;10.73;6.05;;;32.50;43.80;;;;;;6233523;28;20235;-59
2021/07/28 16:04:40;;;;;;;8.95;5.93;;;32.50;44.10;;;;;;6240612;28;20554;-59